Historyczne dane pomiarowe

Dodano dane terminowe – wersja testowa.

Dane z okresu 1951-2019

Wersja bazy: 1.34 [2019-03-16, lista zmian], aktualizacja planowana na 2019-04-15

Dane meteo z obszaru Polski uzyskane na podstawie danych udostępnionych przez Instytut Meteorologii i Gospodarki Wodnej – Państwowy Instytut Badawczy.

 

Wybierz Datę:    

       

TemperaturaWilgotnośćWiatrCiśnienieOpadyŚniegCzas trwania zjawisk
 Stacja t tx tn tng RH VA  wxwx mslp ppp RRR   cm mm wxwxwxwxwxwxwx
2014-10-11 14.2 23.3 8.5--- 3.0----- 0.0------------
2014-10-12 13.9 22.2 8.5--- 4.0----- 0.0------------
2014-10-13 14.3 21.7 10.6--- 5.0----- 0.0------------
2014-10-14 16.6 23.8 9.6--- 3.0----- 0.0------------
2014-10-15 10.3 16.4 6.0--- 7.7----- 7.2------------
2014-10-16 11.8 18.8 7.4--- 6.3----- 0.4------------
2014-10-17 11.4 14.4 9.4--- 8.0----- 15.0------------
2014-10-18 10.2 12.5 8.5--- 8.0----- 5.2------------
2014-10-19 9.5 16.9 5.5--- 3.0----- 0.0------------
2014-10-20 12.0 18.8 8.4--- 4.3----- 0.0------------
2014-10-21 9.1 16.3 6.4--- 4.3----- 0.8------------
2014-10-22 6.9 9.3 4.4--- 8.0----- 19.9------------
2014-10-23 4.8 7.4 2.9--- 8.0----- 6.8------------
2014-10-24 1.3 3.9 -0.1--- 8.0----- 0.0------------
2014-10-25 3.3 10.5 -0.3--- 3.3----- 0.0------------
2014-10-26 3.9 12.5 0.4--- 2.7----- 0.0------------
2014-10-27 2.3 13.4 -2.9--- 0.0----- 0.0------------
2014-10-28 2.9 15.9 -3.1--- 0.0----- 0.0------------
2014-10-29 2.8 13.0 -2.1--- 0.0----- 0.0------------
2014-10-30 2.1 11.0 -2.1--- 4.0----- 0.0------------
2014-10-31 2.8 9.5 -1.7--- 4.0----- 0.0------------
2014-11-01 4.2 12.4 -2.1--- 5.3----- 0.0------------
2014-11-02 4.8 7.0 2.9--- 6.3----- 0.0------------
2014-11-03 6.9 11.8 4.4--- 3.3----- 0.0------------
2014-11-04 10.0 16.4 4.5--- 2.0----- 0.0------------
2014-11-05 11.9 17.6 6.8--- 0.7----- 0.0------------
2014-11-06 12.6 16.7 9.6--- 3.0----- 0.0------------
2014-11-07 14.1 17.8 11.5--- 6.7----- 0.0------------
2014-11-08 12.8 17.3 9.5--- 7.0----- 0.3------------
2014-11-09 10.7 18.2 7.5--- 4.0----- 0.0------------
1070.1 ms

 

Źródłem pochodzenia danych jest Instytut Meteorologii i Gospodarki Wodnej – Państwowy Instytut Badawczy. Dane Instytutu Meteorologii i Gospodarki Wodnej – Państwowego Instytutu Badawczego zostały przetworzone.

Dane źródłowe można odnaleźć na stronie https://dane.imgw.pl